createdAt,value
2022-10-03T00:05:02.400Z,11.71
2022-10-03T00:10:06.146Z,11.63
2022-10-03T00:15:04.530Z,11.55
2022-10-03T00:20:03.866Z,11.45
2022-10-03T00:25:07.629Z,11.48
2022-10-03T00:30:07.996Z,11.43
2022-10-03T00:35:09.741Z,11.43
2022-10-03T00:40:37.881Z,11.42
2022-10-03T00:45:51.387Z,11.37
2022-10-03T00:51:19.427Z,11.35
2022-10-03T00:56:35.384Z,11.31
2022-10-03T01:01:39.947Z,11.28
2022-10-03T01:06:40.364Z,11.23
2022-10-03T01:11:42.697Z,11.19
2022-10-03T01:16:47.810Z,11.09
2022-10-03T01:21:49.196Z,11.14
2022-10-03T01:26:57.408Z,11.05
2022-10-03T01:31:57.051Z,11.03
2022-10-03T01:37:02.451Z,11.02
2022-10-03T01:42:00.842Z,10.96
2022-10-03T01:46:58.955Z,10.89
2022-10-03T01:51:58.119Z,10.91
2022-10-03T01:56:58.569Z,10.86
2022-10-03T02:01:56.532Z,10.83
2022-10-03T02:06:58.293Z,10.78
2022-10-03T02:12:03.299Z,10.71
2022-10-03T02:17:06.186Z,10.71
2022-10-03T02:21:58.028Z,10.66
2022-10-03T02:27:15.681Z,10.63
2022-10-03T02:32:39.669Z,10.59
2022-10-03T02:37:59.431Z,10.63
2022-10-03T02:43:16.429Z,10.59
2022-10-03T02:48:31.202Z,10.61
2022-10-03T02:53:51.311Z,10.60
2022-10-03T02:59:06.917Z,10.63
2022-10-03T03:04:25.212Z,10.61
2022-10-03T03:09:45.880Z,10.49
2022-10-03T03:15:10.876Z,10.53
2022-10-03T03:20:20.824Z,10.53
2022-10-03T03:25:24.701Z,10.44
2022-10-03T03:30:21.220Z,10.45
2022-10-03T03:35:19.739Z,10.38
2022-10-03T03:40:34.030Z,10.37
2022-10-03T03:45:37.350Z,10.34
2022-10-03T03:50:43.497Z,10.31
2022-10-03T03:55:53.267Z,10.28
2022-10-03T04:01:08.587Z,10.21
2022-10-03T04:06:19.362Z,10.21
2022-10-03T04:11:21.289Z,10.18
2022-10-03T04:16:51.284Z,10.20
2022-10-03T04:22:09.670Z,10.12
2022-10-03T04:27:28.104Z,10.15
2022-10-03T04:32:45.426Z,10.13
2022-10-03T04:37:44.690Z,10.05
2022-10-03T04:42:48.414Z,9.81
2022-10-03T04:47:48.429Z,9.77
2022-10-03T04:52:42.075Z,9.66
2022-10-03T04:57:34.504Z,9.64
2022-10-03T05:02:46.223Z,9.63
2022-10-03T05:07:42.597Z,9.64
2022-10-03T05:12:35.149Z,9.68
2022-10-03T05:17:28.119Z,9.76
2022-10-03T05:22:25.376Z,9.84
2022-10-03T05:27:18.087Z,9.90
2022-10-03T05:32:16.639Z,9.95
2022-10-03T05:37:20.832Z,9.99
2022-10-03T05:42:25.071Z,10.06
2022-10-03T05:47:37.709Z,10.10
2022-10-03T05:52:43.984Z,10.11
2022-10-03T05:57:53.044Z,10.12
2022-10-03T06:02:57.847Z,10.10
2022-10-03T06:07:59.381Z,10.08
2022-10-03T06:12:54.321Z,10.07
2022-10-03T06:17:58.577Z,10.04
2022-10-03T06:23:06.374Z,10.01
2022-10-03T06:28:19.356Z,9.95
2022-10-03T06:33:28.941Z,9.91
2022-10-03T06:38:35.087Z,9.88
2022-10-03T06:43:40.524Z,9.88
2022-10-03T06:48:47.659Z,9.86
2022-10-03T06:53:52.308Z,9.87
2022-10-03T06:59:05.477Z,9.90
2022-10-03T07:04:12.758Z,9.99
2022-10-03T07:09:27.292Z,10.17
2022-10-03T07:14:37.538Z,10.39
2022-10-03T07:19:47.835Z,10.60
2022-10-03T07:24:57.327Z,10.81
2022-10-03T07:30:06.013Z,10.95
2022-10-03T07:35:20.128Z,11.11
2022-10-03T07:40:27.980Z,11.24
2022-10-03T07:45:34.658Z,11.35
2022-10-03T07:50:46.625Z,11.46
2022-10-03T07:56:08.609Z,11.62
2022-10-03T08:01:10.381Z,11.74
2022-10-03T08:06:16.992Z,11.94
2022-10-03T08:11:14.820Z,12.15
2022-10-03T08:16:22.622Z,12.38
2022-10-03T08:21:13.224Z,12.54
2022-10-03T08:26:12.293Z,12.68
2022-10-03T08:31:16.416Z,12.82
2022-10-03T08:36:42.690Z,12.93
2022-10-03T08:41:58.135Z,13.10
2022-10-03T08:47:04.314Z,13.22
2022-10-03T08:52:02.138Z,13.37
2022-10-03T08:57:00.668Z,13.50
2022-10-03T09:02:09.927Z,13.74
2022-10-03T09:07:19.319Z,13.91
2022-10-03T09:12:25.745Z,14.16
2022-10-03T09:17:28.816Z,14.27
2022-10-03T09:22:23.194Z,14.36
2022-10-03T09:27:28.443Z,14.42
2022-10-03T09:32:43.044Z,14.56
2022-10-03T09:37:56.282Z,14.63
2022-10-03T09:42:57.169Z,14.75
2022-10-03T09:48:02.318Z,14.84
2022-10-03T09:53:07.078Z,14.91
2022-10-03T09:58:25.841Z,15.15
2022-10-03T10:03:36.805Z,15.43
2022-10-03T10:08:37.820Z,15.61
2022-10-03T10:14:06.703Z,15.83
2022-10-03T10:19:07.566Z,15.97
2022-10-03T10:24:04.339Z,16.12
2022-10-03T10:29:24.323Z,16.22
2022-10-03T10:34:57.995Z,16.53
2022-10-03T10:40:29.687Z,16.76
2022-10-03T10:45:49.642Z,16.83
2022-10-03T10:51:12.136Z,16.70
2022-10-03T10:56:40.199Z,16.58
2022-10-03T11:02:16.591Z,16.41
2022-10-03T11:07:45.743Z,16.32
2022-10-03T11:13:17.934Z,16.20
2022-10-03T11:18:41.562Z,16.13
2022-10-03T11:24:14.787Z,16.03
2022-10-03T11:29:43.996Z,16.05
2022-10-03T11:35:21.244Z,16.02
2022-10-03T11:40:39.781Z,15.92
2022-10-03T11:45:35.603Z,15.86
2022-10-03T11:50:44.996Z,15.85
2022-10-03T11:55:44.217Z,15.80
2022-10-03T12:00:39.391Z,15.75
2022-10-03T12:05:46.286Z,15.78
2022-10-03T12:10:57.073Z,15.79
2022-10-03T12:15:51.883Z,15.84
2022-10-03T12:21:07.095Z,15.88
2022-10-03T12:26:03.245Z,15.93
2022-10-03T12:30:58.071Z,15.95
2022-10-03T12:35:54.105Z,15.96
2022-10-03T12:40:50.082Z,16.02
2022-10-03T12:45:46.080Z,16.10
2022-10-03T12:50:48.833Z,16.18
2022-10-03T12:55:42.177Z,16.21
2022-10-03T13:00:41.687Z,16.24
2022-10-03T13:06:07.852Z,16.30
2022-10-03T13:11:02.781Z,16.27
2022-10-03T13:16:21.372Z,16.29
2022-10-03T13:21:44.370Z,16.24
2022-10-03T13:26:46.082Z,16.26
2022-10-03T13:31:41.710Z,16.25
2022-10-03T13:36:41.829Z,16.26
2022-10-03T13:41:45.265Z,16.24
2022-10-03T13:46:48.972Z,16.28
2022-10-03T13:51:50.306Z,16.34
2022-10-03T13:56:56.591Z,16.33
2022-10-03T14:01:59.643Z,16.32
2022-10-03T14:06:59.306Z,16.37
2022-10-03T14:11:56.260Z,16.38
2022-10-03T14:16:54.535Z,16.46
2022-10-03T14:22:09.257Z,16.48
2022-10-03T14:27:05.558Z,16.53
2022-10-03T14:32:01.370Z,16.60
2022-10-03T14:37:00.907Z,16.65
2022-10-03T14:42:19.938Z,16.69
2022-10-03T14:47:12.852Z,16.68
2022-10-03T14:52:08.979Z,16.72
2022-10-03T14:57:02.609Z,16.66
2022-10-03T15:01:55.222Z,16.71
2022-10-03T15:06:57.442Z,16.82
2022-10-03T15:11:52.411Z,16.91
2022-10-03T15:16:50.441Z,17.09
2022-10-03T15:21:45.271Z,17.16
2022-10-03T15:26:37.634Z,17.14
2022-10-03T15:31:35.669Z,17.01
2022-10-03T15:36:31.348Z,16.96
2022-10-03T15:41:30.196Z,16.81
2022-10-03T15:46:34.985Z,16.74
2022-10-03T15:51:31.434Z,16.66
2022-10-03T15:56:28.668Z,16.61
2022-10-03T16:01:24.980Z,16.60
2022-10-03T16:06:26.493Z,16.55
2022-10-03T16:11:25.391Z,16.50
2022-10-03T16:16:31.155Z,16.48
2022-10-03T16:21:57.817Z,16.45
2022-10-03T16:26:59.265Z,16.40
2022-10-03T16:31:57.732Z,16.32
2022-10-03T16:36:53.425Z,16.24
2022-10-03T16:41:49.074Z,16.15
2022-10-03T16:46:47.217Z,16.14
2022-10-03T16:51:45.914Z,16.03
2022-10-03T16:56:44.520Z,15.95
2022-10-03T17:01:40.223Z,15.89
2022-10-03T17:06:37.546Z,15.84
2022-10-03T17:11:40.492Z,15.66
2022-10-03T17:16:40.189Z,15.65
2022-10-03T17:21:39.739Z,15.62
2022-10-03T17:26:39.517Z,15.50
2022-10-03T17:31:35.184Z,15.36
2022-10-03T17:37:11.170Z,15.31
2022-10-03T17:42:10.563Z,15.25
2022-10-03T17:47:09.458Z,15.20
2022-10-03T17:52:09.050Z,15.09
2022-10-03T17:57:11.457Z,15.04
2022-10-03T18:02:09.585Z,15.01
2022-10-03T18:07:09.090Z,14.91
2022-10-03T18:12:15.455Z,14.83
2022-10-03T18:17:15.271Z,14.77
2022-10-03T18:22:19.197Z,14.64
2022-10-03T18:27:40.579Z,14.55
2022-10-03T18:32:32.685Z,14.46
2022-10-03T18:37:53.093Z,14.51
2022-10-03T18:42:50.394Z,14.46
2022-10-03T18:47:44.272Z,14.38
2022-10-03T18:52:43.855Z,14.41
2022-10-03T18:57:41.142Z,14.41
2022-10-03T19:02:39.686Z,14.38
2022-10-03T19:07:32.991Z,14.39
2022-10-03T19:12:25.788Z,14.36
2022-10-03T19:17:31.659Z,14.34
2022-10-03T19:22:31.427Z,14.33
2022-10-03T19:27:24.733Z,14.31
2022-10-03T19:32:21.944Z,14.31
2022-10-03T19:37:19.092Z,14.32
2022-10-03T19:42:30.506Z,14.31
2022-10-03T19:47:24.978Z,14.29
2022-10-03T19:52:27.175Z,14.30
2022-10-03T19:57:22.982Z,14.31
2022-10-03T20:02:14.487Z,14.29
2022-10-03T20:07:12.872Z,14.26
2022-10-03T20:12:06.890Z,14.27
2022-10-03T20:17:06.116Z,14.25
2022-10-03T20:21:58.199Z,14.22
2022-10-03T20:26:56.864Z,14.19
2022-10-03T20:31:47.593Z,14.17
2022-10-03T20:36:43.192Z,14.17
2022-10-03T20:41:42.462Z,14.13
2022-10-03T20:46:40.742Z,14.14
2022-10-03T20:51:44.533Z,14.14
2022-10-03T20:56:46.775Z,14.12
2022-10-03T21:01:40.418Z,14.11
2022-10-03T21:06:37.218Z,14.04
2022-10-03T21:11:31.975Z,13.97
2022-10-03T21:16:25.193Z,13.93
2022-10-03T21:21:22.707Z,13.82
2022-10-03T21:26:13.854Z,13.78
2022-10-03T21:31:40.200Z,13.73
2022-10-03T21:36:40.442Z,13.67
2022-10-03T21:41:40.106Z,13.60
2022-10-03T21:46:40.257Z,13.53
2022-10-03T21:51:33.578Z,13.54
2022-10-03T21:56:51.035Z,13.51
2022-10-03T22:01:49.347Z,13.50
2022-10-03T22:06:46.692Z,13.48
2022-10-03T22:11:43.397Z,13.43
2022-10-03T22:16:41.432Z,13.48
2022-10-03T22:21:41.710Z,13.41
2022-10-03T22:26:39.517Z,13.47
2022-10-03T22:31:37.010Z,13.44
2022-10-03T22:36:27.452Z,13.46
2022-10-03T22:41:29.987Z,13.45
2022-10-03T22:46:27.023Z,13.40
2022-10-03T22:51:18.977Z,13.41
2022-10-03T22:56:44.596Z,13.43
2022-10-03T23:01:36.020Z,13.40
2022-10-03T23:06:46.414Z,13.44
2022-10-03T23:11:38.037Z,13.37
2022-10-03T23:16:51.365Z,13.40
2022-10-03T23:21:47.735Z,13.39
2022-10-03T23:27:14.972Z,13.35
2022-10-03T23:32:09.267Z,13.29
2022-10-03T23:37:03.115Z,13.31
2022-10-03T23:42:02.664Z,13.25
2022-10-03T23:46:52.559Z,13.23
2022-10-03T23:51:45.478Z,13.14
2022-10-03T23:56:40.892Z,13.15
